createdAt,value
2019-02-18T00:03:18.838Z,1013.63
2019-02-18T00:08:14.024Z,1013.53
2019-02-18T00:13:09.907Z,1013.57
2019-02-18T00:18:05.409Z,1013.63
2019-02-18T00:23:01.754Z,1013.57
2019-02-18T00:27:57.391Z,1013.55
2019-02-18T00:32:52.784Z,1013.52
2019-02-18T00:37:48.607Z,1013.57
2019-02-18T00:42:44.279Z,1013.57
2019-02-18T00:47:39.909Z,1013.57
2019-02-18T00:52:35.654Z,1013.52
2019-02-18T00:57:31.455Z,1013.55
2019-02-18T01:02:27.352Z,1013.57
2019-02-18T01:07:23.322Z,1013.59
2019-02-18T01:12:19.083Z,1013.56
2019-02-18T01:17:14.590Z,1013.60
2019-02-18T01:22:10.146Z,1013.57
2019-02-18T01:27:05.575Z,1013.62
2019-02-18T01:32:01.254Z,1013.51
2019-02-18T01:36:56.656Z,1013.50
2019-02-18T01:41:52.238Z,1013.44
2019-02-18T01:46:47.886Z,1013.44
2019-02-18T01:51:43.788Z,1013.37
2019-02-18T01:56:39.397Z,1013.51
2019-02-18T02:01:36.062Z,1013.34
2019-02-18T02:06:31.477Z,1013.38
2019-02-18T02:11:27.662Z,1013.31
2019-02-18T02:16:23.436Z,1013.35
2019-02-18T02:21:18.826Z,1013.17
2019-02-18T02:26:14.502Z,1013.21
2019-02-18T02:31:09.970Z,1013.19
2019-02-18T02:36:05.677Z,1013.16
2019-02-18T02:41:01.810Z,1013.24
2019-02-18T02:45:57.340Z,1013.23
2019-02-18T02:50:53.997Z,1013.21
2019-02-18T02:55:49.348Z,1013.22
2019-02-18T03:00:45.105Z,1013.17
2019-02-18T03:05:40.777Z,1013.16
2019-02-18T03:10:36.507Z,1013.16
2019-02-18T03:15:33.014Z,1013.13
2019-02-18T03:20:28.155Z,1013.07
2019-02-18T03:25:24.771Z,1013.12
2019-02-18T03:30:20.158Z,1013.05
2019-02-18T03:35:15.713Z,1012.98
2019-02-18T03:40:11.468Z,1012.94
2019-02-18T03:45:07.000Z,1013.07
2019-02-18T03:50:02.603Z,1013.13
2019-02-18T03:54:57.868Z,1013.09
2019-02-18T03:59:53.415Z,1013.24
2019-02-18T04:04:49.051Z,1013.21
2019-02-18T04:09:44.673Z,1013.13
2019-02-18T04:14:40.612Z,1013.18
2019-02-18T04:19:37.223Z,1013.17
2019-02-18T04:24:33.604Z,1013.23
2019-02-18T04:29:28.828Z,1013.12
2019-02-18T04:34:24.200Z,1013.11
2019-02-18T04:39:19.628Z,1013.11
2019-02-18T04:44:15.100Z,1013.15
2019-02-18T04:49:10.733Z,1013.15
2019-02-18T04:54:06.526Z,1013.20
2019-02-18T04:59:02.094Z,1013.14
2019-02-18T05:03:57.833Z,1013.04
2019-02-18T05:08:53.475Z,1013.05
2019-02-18T05:13:49.317Z,1012.92
2019-02-18T05:18:45.526Z,1012.93
2019-02-18T05:23:41.079Z,1012.94
2019-02-18T05:28:36.714Z,1012.86
2019-02-18T05:33:32.403Z,1012.85
2019-02-18T05:38:27.914Z,1012.79
2019-02-18T05:43:23.565Z,1012.80
2019-02-18T05:48:19.060Z,1012.73
2019-02-18T05:53:14.648Z,1012.75
2019-02-18T05:58:10.382Z,1012.75
2019-02-18T06:03:07.036Z,1012.65
2019-02-18T06:08:02.471Z,1012.72
2019-02-18T06:12:58.037Z,1012.78
2019-02-18T06:17:54.668Z,1012.73
2019-02-18T06:22:50.080Z,1012.77
2019-02-18T06:27:45.789Z,1012.74
2019-02-18T06:32:41.115Z,1012.65
2019-02-18T06:37:36.652Z,1012.71
2019-02-18T06:42:32.376Z,1012.77
2019-02-18T06:47:28.228Z,1012.82
2019-02-18T06:52:23.802Z,1012.87
2019-02-18T06:57:19.558Z,1012.83
2019-02-18T07:02:15.277Z,1012.90
2019-02-18T07:07:10.996Z,1012.93
2019-02-18T07:12:07.696Z,1012.87
2019-02-18T07:17:04.001Z,1012.88
2019-02-18T07:21:59.416Z,1012.90
2019-02-18T07:26:55.143Z,1012.89
2019-02-18T07:31:50.773Z,1012.83
2019-02-18T07:36:46.690Z,1012.80
2019-02-18T07:41:42.439Z,1012.68
2019-02-18T07:46:38.183Z,1012.72
2019-02-18T07:51:34.925Z,1012.71
2019-02-18T07:56:30.897Z,1012.65
2019-02-18T08:01:27.701Z,1012.60
2019-02-18T08:06:23.143Z,1012.71
2019-02-18T08:11:18.482Z,1012.65
2019-02-18T08:16:14.330Z,1012.72
2019-02-18T08:21:10.187Z,1012.69
2019-02-18T08:26:05.919Z,1012.75
2019-02-18T08:31:01.695Z,1012.83
2019-02-18T08:35:57.527Z,1012.70
2019-02-18T08:40:53.255Z,1012.68
2019-02-18T08:45:50.277Z,1012.64
2019-02-18T08:50:47.017Z,1012.58
2019-02-18T08:55:43.030Z,1012.55
2019-02-18T09:00:40.392Z,1012.55
2019-02-18T09:05:37.898Z,1012.46
2019-02-18T09:10:34.103Z,1012.43
2019-02-18T09:15:29.846Z,1012.36
2019-02-18T09:20:27.044Z,1012.40
2019-02-18T09:25:22.584Z,1012.31
2019-02-18T09:30:18.585Z,1012.30
2019-02-18T09:35:15.819Z,1012.37
2019-02-18T09:40:11.231Z,1012.29
2019-02-18T09:45:07.712Z,1012.33
2019-02-18T09:50:03.867Z,1012.32
2019-02-18T09:55:00.936Z,1012.32
2019-02-18T09:59:57.685Z,1012.28
2019-02-18T10:04:53.150Z,1012.19
2019-02-18T10:09:50.367Z,1012.24
2019-02-18T10:14:46.692Z,1012.18
2019-02-18T10:19:43.170Z,1012.11
2019-02-18T10:24:50.237Z,1012.04
2019-02-18T10:29:39.111Z,1011.98
2019-02-18T10:34:34.987Z,1011.94
2019-02-18T10:39:31.054Z,1011.88
2019-02-18T10:44:27.336Z,1011.82
2019-02-18T10:49:23.428Z,1011.77
2019-02-18T10:54:19.625Z,1011.67
2019-02-18T10:59:15.596Z,1011.61
2019-02-18T11:04:12.691Z,1011.57
2019-02-18T11:09:09.221Z,1011.56
2019-02-18T11:14:04.933Z,1011.52
2019-02-18T11:19:00.827Z,1011.41
2019-02-18T11:23:56.870Z,1011.43
2019-02-18T11:28:52.929Z,1011.26
2019-02-18T11:33:49.407Z,1011.18
2019-02-18T11:38:45.647Z,1011.22
2019-02-18T11:43:41.515Z,1011.20
2019-02-18T11:48:37.622Z,1011.13
2019-02-18T11:53:34.307Z,1011.00
2019-02-18T11:58:30.009Z,1010.98
2019-02-18T12:03:27.128Z,1011.01
2019-02-18T12:08:23.898Z,1010.82
2019-02-18T12:13:19.984Z,1010.75
2019-02-18T12:18:17.050Z,1010.73
2019-02-18T12:23:13.167Z,1010.68
2019-02-18T12:28:08.911Z,1010.62
2019-02-18T12:33:04.953Z,1010.57
2019-02-18T12:38:00.836Z,1010.50
2019-02-18T12:42:56.705Z,1010.30
2019-02-18T12:47:52.349Z,1010.25
2019-02-18T12:52:48.237Z,1010.19
2019-02-18T12:57:45.487Z,1010.14
2019-02-18T13:02:44.439Z,1010.09
2019-02-18T13:07:39.130Z,1010.11
2019-02-18T13:12:35.418Z,1009.96
2019-02-18T13:17:32.177Z,1009.93
2019-02-18T13:22:28.359Z,1009.82
2019-02-18T13:27:24.224Z,1009.77
2019-02-18T13:32:20.947Z,1009.68
2019-02-18T13:37:16.773Z,1009.66
2019-02-18T13:42:13.027Z,1009.57
2019-02-18T13:47:09.444Z,1009.57
2019-02-18T13:52:05.679Z,1009.46
2019-02-18T13:57:08.206Z,1009.40
2019-02-18T14:02:01.110Z,1009.39
2019-02-18T14:06:57.226Z,1009.23
2019-02-18T14:11:53.147Z,1009.28
2019-02-18T14:16:49.228Z,1009.32
2019-02-18T14:21:46.135Z,1009.31
2019-02-18T14:26:41.923Z,1009.18
2019-02-18T14:31:37.566Z,1009.10
2019-02-18T14:36:33.198Z,1009.03
2019-02-18T14:41:29.221Z,1009.01
2019-02-18T14:46:24.929Z,1008.90
2019-02-18T14:51:21.850Z,1008.89
2019-02-18T14:56:17.714Z,1008.87
2019-02-18T15:01:13.426Z,1008.82
2019-02-18T15:06:10.198Z,1008.77
2019-02-18T15:11:05.539Z,1008.79
2019-02-18T15:16:00.937Z,1008.68
2019-02-18T15:20:57.753Z,1008.50
2019-02-18T15:25:53.250Z,1008.47
2019-02-18T15:30:49.456Z,1008.51
2019-02-18T15:35:45.181Z,1008.42
2019-02-18T15:40:40.588Z,1008.40
2019-02-18T15:45:36.527Z,1008.31
2019-02-18T15:50:32.339Z,1008.29
2019-02-18T15:55:28.396Z,1008.31
2019-02-18T16:00:24.024Z,1008.28
2019-02-18T16:05:19.709Z,1008.34
2019-02-18T16:10:15.433Z,1008.25
2019-02-18T16:15:11.407Z,1008.21
2019-02-18T16:20:07.054Z,1008.17
2019-02-18T16:25:02.843Z,1008.25
2019-02-18T16:29:59.465Z,1008.14
2019-02-18T16:34:56.465Z,1008.12
2019-02-18T16:39:52.878Z,1008.11
2019-02-18T16:44:49.210Z,1008.15
2019-02-18T16:49:44.588Z,1008.15
2019-02-18T16:54:41.011Z,1008.21
2019-02-18T16:59:37.741Z,1008.16
2019-02-18T17:04:33.332Z,1008.23
2019-02-18T17:09:30.003Z,1008.22
2019-02-18T17:14:25.286Z,1008.22
2019-02-18T17:19:21.038Z,1008.22
2019-02-18T17:24:17.599Z,1008.20
2019-02-18T17:29:13.480Z,1008.10
2019-02-18T17:34:10.986Z,1008.02
2019-02-18T17:39:06.629Z,1008.08
2019-02-18T17:44:03.433Z,1008.10
2019-02-18T17:48:58.986Z,1008.16
2019-02-18T17:53:55.617Z,1008.20
2019-02-18T17:58:51.122Z,1008.23
2019-02-18T18:03:47.545Z,1008.21
2019-02-18T18:08:43.392Z,1008.18
2019-02-18T18:13:40.566Z,1008.18
2019-02-18T18:18:36.201Z,1008.16
2019-02-18T18:23:32.336Z,1008.11
2019-02-18T18:28:28.448Z,1008.08
2019-02-18T18:33:25.143Z,1008.18
2019-02-18T18:38:22.780Z,1008.14
2019-02-18T18:43:18.007Z,1008.22
2019-02-18T18:48:13.828Z,1008.28
2019-02-18T18:53:09.743Z,1008.28
2019-02-18T18:58:05.487Z,1008.39
2019-02-18T19:03:02.355Z,1008.32
2019-02-18T19:07:59.054Z,1008.26
2019-02-18T19:12:54.302Z,1008.37
2019-02-18T19:17:50.839Z,1008.34
2019-02-18T19:22:46.149Z,1008.49
2019-02-18T19:27:42.830Z,1008.47
2019-02-18T19:32:38.216Z,1008.47
2019-02-18T19:37:34.150Z,1008.48
2019-02-18T19:42:29.861Z,1008.50
2019-02-18T19:47:25.633Z,1008.52
2019-02-18T19:52:21.340Z,1008.37
2019-02-18T19:57:16.958Z,1008.46
2019-02-18T20:02:12.449Z,1008.43
2019-02-18T20:07:07.999Z,1008.41
2019-02-18T20:12:05.231Z,1008.38
2019-02-18T20:17:00.550Z,1008.28
2019-02-18T20:21:56.842Z,1008.47
2019-02-18T20:26:53.321Z,1008.39
2019-02-18T20:31:49.099Z,1008.40
2019-02-18T20:36:44.821Z,1008.43
2019-02-18T20:41:41.906Z,1008.41
2019-02-18T20:46:37.753Z,1008.45
2019-02-18T20:51:34.206Z,1008.49
2019-02-18T20:56:29.889Z,1008.46
2019-02-18T21:01:26.921Z,1008.47
2019-02-18T21:06:23.282Z,1008.44
2019-02-18T21:11:18.966Z,1008.43
2019-02-18T21:16:15.726Z,1008.45
2019-02-18T21:21:11.254Z,1008.42
2019-02-18T21:26:06.963Z,1008.42
2019-02-18T21:31:03.458Z,1008.37
2019-02-18T21:36:00.375Z,1008.46
2019-02-18T21:40:55.907Z,1008.43
2019-02-18T21:45:51.551Z,1008.46
2019-02-18T21:50:47.283Z,1008.54
2019-02-18T21:55:42.910Z,1008.55
2019-02-18T22:00:38.837Z,1008.50
2019-02-18T22:05:34.975Z,1008.49
2019-02-18T22:10:30.802Z,1008.52
2019-02-18T22:15:27.186Z,1008.43
2019-02-18T22:20:23.749Z,1008.49
2019-02-18T22:25:19.673Z,1008.57
2019-02-18T22:30:15.713Z,1008.42
2019-02-18T22:35:12.343Z,1008.42
2019-02-18T22:40:07.810Z,1008.49
2019-02-18T22:45:03.607Z,1008.45
2019-02-18T22:50:00.283Z,1008.36
2019-02-18T22:54:55.886Z,1008.51
2019-02-18T22:59:52.519Z,1008.47
2019-02-18T23:04:49.538Z,1008.37
2019-02-18T23:09:46.396Z,1008.52
2019-02-18T23:14:41.314Z,1008.49
2019-02-18T23:19:37.994Z,1008.47
2019-02-18T23:24:33.449Z,1008.45
2019-02-18T23:29:29.393Z,1008.39
2019-02-18T23:34:24.815Z,1008.42
2019-02-18T23:39:20.961Z,1008.46
2019-02-18T23:44:17.272Z,1008.54
2019-02-18T23:49:13.252Z,1008.46
2019-02-18T23:54:09.006Z,1008.61
2019-02-18T23:59:04.637Z,1008.53
